Terminal Aerodrome Forecast
Issued by NWS

Home | Current Version | Previous Version | Text Only | Print | Product List | Glossary On
Versions: 1 2 3 4 5 6 7 8 9 10 11 12 13 14 15 16 17 18 19
000
FTUS43 KAPX 210600 AAB
TAFTVC
TAF AMD
KTVC 210648Z 2107/2206 VRB03KT P6SM VCSH OVC025
      TEMPO 2107/2108 27015KT 3SM TSRA BKN006CB
     FM210800 35006KT 5SM SHRA OVC022
     FM211000 36006KT 6SM -SHRA OVC025
     FM211500 35012G21KT P6SM OVC035
     FM220000 35008KT P6SM SCT040=

USA.gov is the U.S. government's official web portal to all federal, state and local government web resources and services.